Time;durP1;ratioP1;P1;durP2;ratioP2;P2;SDS_P1;SDS_P2;PMS_P1;PMS_P2;Temp;Humidity;BMP_temperature;BMP_pressure;BME280_temperature;BME280_humidity;BME280_pressure;Samples;Min_cycle;Max_cycle;Signal;HPM_P1;HPM_P2
2022/04/07 00:01:13;;;;;;;3.95;2.08;;;;;;;11.42;66.28;99102.63;4023845;29;20037;-62
2022/04/07 00:03:17;;;;;;;5.97;2.33;;;;;;;11.46;65.54;99098.22;4031874;29;20044;-62
2022/04/07 00:05:19;;;;;;;5.82;2.70;;;;;;;11.47;66.99;99099.97;4028387;29;20128;-62
2022/04/07 00:07:22;;;;;;;6.10;2.28;;;;;;;11.35;65.78;99103.56;4028622;29;20037;-62
2022/04/07 00:09:25;;;;;;;4.45;2.28;;;;;;;11.37;65.86;99103.56;4025640;29;20038;-62
2022/04/07 00:11:28;;;;;;;3.20;2.28;;;;;;;11.45;66.22;99107.78;4026653;29;20532;-62
2022/04/07 00:13:32;;;;;;;3.92;2.20;;;;;;;11.51;66.41;99099.06;4030988;29;20451;-61
2022/04/07 00:15:34;;;;;;;4.82;2.25;;;;;;;11.42;65.66;99097.44;4026571;29;20476;-62
2022/04/07 00:17:39;;;;;;;5.80;2.50;;;;;;;11.38;66.93;99087.94;4023503;29;20076;-61
2022/04/07 00:19:42;;;;;;;3.25;2.13;;;;;;;11.31;66.49;99079.31;4036093;29;20085;-61
2022/04/07 00:21:46;;;;;;;3.92;2.00;;;;;;;11.31;66.81;99078.47;4025353;29;20043;-61
2022/04/07 00:23:50;;;;;;;4.00;2.20;;;;;;;11.20;67.42;99069.91;4025899;29;20041;-62
2022/04/07 00:25:53;;;;;;;3.00;1.98;;;;;;;11.35;66.44;99055.00;4036873;29;20072;-62
2022/04/07 00:27:56;;;;;;;2.95;2.10;;;;;;;11.35;67.40;99048.94;4042620;29;20100;-62
2022/04/07 00:29:59;;;;;;;2.67;2.10;;;;;;;11.28;67.77;99057.69;4038755;29;20539;-62
2022/04/07 00:32:05;;;;;;;3.45;2.15;;;;;;;11.24;67.21;99063.78;4024890;29;20053;-62
2022/04/07 00:34:11;;;;;;;3.13;2.13;;;;;;;11.30;66.43;99053.31;4038056;29;20064;-62
2022/04/07 00:36:14;;;;;;;6.03;2.60;;;;;;;11.25;67.52;99060.31;4024581;29;20069;-62
2022/04/07 00:38:16;;;;;;;3.00;2.10;;;;;;;11.27;67.34;99055.97;4028386;29;20056;-62
2022/04/07 00:40:19;;;;;;;4.43;2.35;;;;;;;11.23;66.70;99041.25;4031190;29;20052;-62
2022/04/07 00:42:22;;;;;;;3.20;1.88;;;;;;;11.34;67.33;99047.19;4025044;29;20063;-62
2022/04/07 00:44:27;;;;;;;3.55;2.28;;;;;;;11.33;67.09;99035.06;4024616;29;20132;-62
2022/04/07 00:46:30;;;;;;;;;;;;;;;11.19;67.80;99027.44;4024930;29;20461;-62
2022/04/07 00:48:35;;;;;;;4.65;2.00;;;;;;;11.21;68.05;99025.66;4027543;29;19924;-62
2022/04/07 00:50:40;;;;;;;2.72;1.98;;;;;;;11.20;67.36;99029.16;4015939;29;20455;-62
2022/04/07 00:52:45;;;;;;;6.22;2.30;;;;;;;11.11;67.98;99034.44;4028998;29;20033;-61
2022/04/07 00:54:49;;;;;;;3.55;2.00;;;;;;;11.03;66.99;99029.34;4034927;29;20148;-62
2022/04/07 00:56:55;;;;;;;7.30;2.17;;;;;;;11.16;66.90;99017.06;4030152;29;20041;-62
2022/04/07 00:58:58;;;;;;;3.83;2.55;;;;;;;11.14;67.07;99014.50;4031614;29;20124;-62
2022/04/07 01:01:01;;;;;;;3.40;2.13;;;;;;;11.09;67.16;99011.06;4032082;29;20484;-62
2022/04/07 01:03:04;;;;;;;4.00;2.00;;;;;;;11.09;67.49;99011.06;4033877;29;20080;-62
2022/04/07 01:05:10;;;;;;;4.05;2.00;;;;;;;11.13;66.92;99007.56;4035710;29;20472;-62
2022/04/07 01:07:14;;;;;;;4.72;1.90;;;;;;;11.12;66.89;99013.63;4033370;29;20040;-62
2022/04/07 01:09:19;;;;;;;3.63;1.85;;;;;;;11.09;67.61;99011.06;4031031;29;20052;-62
2022/04/07 01:11:25;;;;;;;4.15;2.10;;;;;;;11.09;66.45;99010.22;4033833;29;20515;-62
2022/04/07 01:13:42;;;;;;;3.22;2.03;;;;;;;11.03;66.82;99005.94;4030051;29;20145;-62
2022/04/07 01:15:46;;;;;;;2.50;1.80;;;;;;;11.06;66.46;98999.84;4029905;29;20119;-62
2022/04/07 01:17:49;;;;;;;3.25;1.67;;;;;;;11.05;66.59;99004.16;4035320;29;20045;-62
2022/04/07 01:19:52;;;;;;;1.73;1.52;;;;;;;11.05;66.23;99006.78;4030383;29;20131;-62
2022/04/07 01:21:55;;;;;;;3.40;2.17;;;;;;;10.97;66.00;99006.00;4026374;29;20574;-62
2022/04/07 01:24:04;;;;;;;4.00;1.63;;;;;;;10.89;66.07;99002.63;4024912;29;20064;-62
2022/04/07 01:26:09;;;;;;;3.80;1.75;;;;;;;10.80;66.17;99009.63;4037251;29;20133;-63
2022/04/07 01:28:12;;;;;;;3.50;1.98;;;;;;;10.75;67.09;98995.84;4040671;29;20037;-62
2022/04/07 01:30:16;;;;;;;2.63;1.58;;;;;;;10.64;66.78;98985.56;4039909;29;20152;-62
2022/04/07 01:32:23;;;;;;;2.95;1.65;;;;;;;10.69;66.52;98985.50;4029427;29;20072;-62
2022/04/07 01:34:27;;;;;;;3.03;1.50;;;;;;;10.69;66.46;98987.22;4032074;29;20041;-62
2022/04/07 01:36:31;;;;;;;5.78;1.60;;;;;;;10.69;66.24;98982.91;4032280;29;20484;-62
2022/04/07 01:38:34;;;;;;;;;;;;;;;10.59;66.51;98979.53;4031721;29;20051;-62
2022/04/07 01:40:38;;;;;;;5.45;2.10;;;;;;;10.54;66.15;98975.25;4029594;29;20365;-62
2022/04/07 01:42:45;;;;;;;4.45;1.83;;;;;;;10.51;67.07;98964.88;4031323;29;20136;-62
2022/04/07 01:44:53;;;;;;;4.82;1.58;;;;;;;10.56;66.62;98968.31;4033039;29;20111;-62
2022/04/07 01:46:57;;;;;;;2.97;1.50;;;;;;;10.65;66.44;98958.66;4036627;29;20059;-62
2022/04/07 01:49:02;;;;;;;2.45;1.40;;;;;;;10.86;67.02;98967.13;4033222;29;20086;-62
2022/04/07 01:51:06;;;;;;;3.97;1.40;;;;;;;10.90;66.79;98963.59;4031067;29;20500;-62
2022/04/07 01:53:09;;;;;;;2.75;1.40;;;;;;;10.86;66.94;98959.31;4043471;29;20059;-62
2022/04/07 01:55:15;;;;;;;2.67;1.70;;;;;;;10.84;66.66;98971.47;4024953;29;20041;-62
2022/04/07 01:57:22;;;;;;;2.72;1.60;;;;;;;10.80;66.90;98962.84;4040504;29;20144;-62
2022/04/07 01:59:28;;;;;;;3.13;2.08;;;;;;;10.89;66.94;98959.28;4030268;29;20085;-62
2022/04/07 02:01:31;;;;;;;3.20;1.80;;;;;;;10.93;67.04;98957.50;4028335;29;20045;-62
2022/04/07 02:03:33;;;;;;;2.97;1.45;;;;;;;10.90;66.37;98954.97;4030120;29;20045;-62
2022/04/07 02:05:36;;;;;;;3.67;1.40;;;;;;;10.74;66.60;98952.50;4030084;29;20033;-62
2022/04/07 02:07:40;;;;;;;1.58;1.48;;;;;;;10.72;66.75;98959.47;4033208;29;20083;-62
2022/04/07 02:09:43;;;;;;;1.52;1.42;;;;;;;10.75;67.63;98946.44;4029461;29;20037;-62
2022/04/07 02:11:47;;;;;;;1.95;1.15;;;;;;;10.69;67.23;98949.13;4027501;29;20045;-62
2022/04/07 02:13:50;;;;;;;2.97;1.60;;;;;;;10.79;66.64;98945.53;4045577;29;20493;-62
2022/04/07 02:15:55;;;;;;;3.60;1.58;;;;;;;10.79;66.37;98940.34;4029649;29;20122;-62
2022/04/07 02:17:57;;;;;;;3.70;1.65;;;;;;;10.79;66.84;98935.16;4026352;29;20234;-62
2022/04/07 02:20:03;;;;;;;1.88;1.20;;;;;;;10.82;66.13;98935.09;4030334;29;20444;-61
2022/04/07 02:22:06;;;;;;;2.75;1.60;;;;;;;10.76;66.92;98929.97;4029735;29;20053;-62
2022/04/07 02:24:10;;;;;;;1.30;1.20;;;;;;;10.62;67.57;98926.66;4030345;29;20075;-62
2022/04/07 02:26:15;;;;;;;2.65;1.27;;;;;;;10.70;67.01;98930.03;4043210;29;20056;-62
2022/04/07 02:28:18;;;;;;;2.70;1.55;;;;;;;10.72;66.78;98936.09;4033550;29;20047;-62
2022/04/07 02:30:21;;;;;;;2.22;1.10;;;;;;;10.76;66.78;98929.97;4021470;29;20073;-63
2022/04/07 02:32:28;;;;;;;2.50;1.35;;;;;;;10.85;66.96;98930.72;4041293;29;20571;-62
2022/04/07 02:34:31;;;;;;;2.25;1.33;;;;;;;10.74;67.14;98921.31;4016560;29;20547;-62
2022/04/07 02:36:34;;;;;;;1.10;1.00;;;;;;;10.66;66.91;98925.75;4032020;29;20072;-62
2022/04/07 02:38:37;;;;;;;1.60;1.23;;;;;;;10.76;67.05;98922.19;4031961;29;20045;-62
2022/04/07 02:40:40;;;;;;;2.83;1.38;;;;;;;10.76;67.45;98922.19;4030898;29;20036;-62
2022/04/07 02:42:43;;;;;;;1.23;1.10;;;;;;;10.77;67.38;98916.09;4030099;29;20056;-62
2022/04/07 02:44:46;;;;;;;2.42;1.40;;;;;;;10.71;67.58;98910.97;4034336;29;20049;-62
2022/04/07 02:46:49;;;;;;;1.45;1.20;;;;;;;10.74;68.03;98913.53;4030916;29;20124;-62
2022/04/07 02:48:53;;;;;;;1.42;1.30;;;;;;;10.82;67.27;98908.25;4031383;29;20128;-62
2022/04/07 02:50:58;;;;;;;1.90;1.30;;;;;;;10.63;67.63;98900.66;4031956;29;22154;-62
2022/04/07 02:53:00;;;;;;;1.90;0.88;;;;;;;10.71;67.93;98895.38;4030775;29;20128;-62
2022/04/07 02:55:05;;;;;;;4.57;1.40;;;;;;;10.76;68.11;98891.00;4043148;29;20045;-62
2022/04/07 02:57:08;;;;;;;2.05;1.17;;;;;;;10.73;68.39;98888.44;4032282;29;20522;-62
2022/04/07 02:59:11;;;;;;;1.77;1.00;;;;;;;10.71;67.97;98879.78;4026917;29;20821;-62
2022/04/07 03:01:15;;;;;;;5.03;0.95;;;;;;;10.65;68.23;98885.06;4028419;29;20038;-62
2022/04/07 03:03:18;;;;;;;1.98;1.40;;;;;;;10.67;68.29;98878.09;4034599;29;20075;-62
2022/04/07 03:05:22;;;;;;;2.67;1.40;;;;;;;10.74;67.99;98874.53;4032312;29;20093;-62
2022/04/07 03:07:25;;;;;;;2.17;1.10;;;;;;;10.68;68.10;98885.00;4047174;29;20128;-62
2022/04/07 03:09:28;;;;;;;1.13;0.80;;;;;;;10.57;68.56;98877.34;4027842;29;20531;-63
2022/04/07 03:11:31;;;;;;;6.82;1.70;;;;;;;10.54;67.96;98879.09;4027948;29;20052;-62
2022/04/07 03:13:36;;;;;;;1.98;1.00;;;;;;;10.50;68.83;98873.09;4028934;29;20456;-62
2022/04/07 03:15:39;;;;;;;2.20;1.02;;;;;;;10.54;68.35;98874.78;4028233;29;20037;-62
2022/04/07 03:17:43;;;;;;;2.08;1.20;;;;;;;10.47;68.83;98871.38;4031973;29;20037;-62
2022/04/07 03:19:46;;;;;;;3.00;1.02;;;;;;;10.46;68.83;98864.47;4031747;29;20128;-62
2022/04/07 03:21:50;;;;;;;3.67;1.25;;;;;;;10.48;68.35;98862.72;4027540;29;20049;-62
2022/04/07 03:23:53;;;;;;;1.83;1.25;;;;;;;10.51;68.48;98861.81;4032691;29;20093;-62
2022/04/07 03:25:56;;;;;;;5.78;1.60;;;;;;;10.56;68.60;98859.19;4028369;29;20045;-62
2022/04/07 03:27:59;;;;;;;5.82;1.40;;;;;;;10.54;68.74;98856.59;4037417;29;20133;-61
2022/04/07 03:30:03;;;;;;;1.83;1.10;;;;;;;10.47;68.10;98845.41;4038183;29;20391;-62
2022/04/07 03:32:07;;;;;;;4.18;1.20;;;;;;;10.42;68.42;98846.34;4028636;29;20556;-62
2022/04/07 03:34:10;;;;;;;3.95;1.30;;;;;;;10.42;68.76;98842.00;4044592;29;20033;-62
2022/04/07 03:36:12;;;;;;;2.75;1.27;;;;;;;10.46;69.03;98842.81;4031588;29;20445;-62
2022/04/07 03:38:17;;;;;;;6.85;1.23;;;;;;;10.57;68.46;98847.88;4030906;29;20061;-62
2022/04/07 03:40:20;;;;;;;6.88;1.60;;;;;;;10.59;68.19;98854.78;4031797;29;20108;-61
2022/04/07 03:42:23;;;;;;;3.63;1.15;;;;;;;10.52;68.24;98847.09;4031359;29;20037;-61
2022/04/07 03:44:26;;;;;;;3.03;1.00;;;;;;;10.67;67.28;98835.66;4031271;29;20037;-62
2022/04/07 03:46:29;;;;;;;3.85;1.30;;;;;;;10.65;67.91;98840.88;4031887;29;20132;-62
2022/04/07 03:48:32;;;;;;;2.42;1.10;;;;;;;10.66;67.38;98840.00;4031982;29;20044;-62
2022/04/07 03:50:35;;;;;;;2.42;1.05;;;;;;;10.60;67.57;98829.66;4028348;29;20519;-62
2022/04/07 03:52:38;;;;;;;3.10;1.42;;;;;;;10.55;68.04;98831.47;4026232;29;20037;-62
2022/04/07 03:54:42;;;;;;;3.72;1.25;;;;;;;10.49;67.63;98832.41;4026239;29;20065;-62
2022/04/07 03:56:45;;;;;;;4.82;1.30;;;;;;;10.52;68.17;98828.91;4016720;29;20125;-62
2022/04/07 03:58:48;;;;;;;5.32;1.33;;;;;;;10.47;67.99;98824.63;4030918;29;20456;-62
2022/04/07 04:00:51;;;;;;;3.85;1.20;;;;;;;10.53;68.17;98828.00;4028962;29;20075;-62
2022/04/07 04:02:54;;;;;;;3.35;1.23;;;;;;;10.54;68.18;98829.75;4031312;29;20597;-62
2022/04/07 04:04:57;;;;;;;5.47;1.50;;;;;;;10.52;67.83;98837.56;4024877;29;20106;-62
2022/04/07 04:07:00;;;;;;;1.88;1.00;;;;;;;10.51;67.66;98825.44;4027067;29;20047;-62
2022/04/07 04:09:03;;;;;;;2.72;1.13;;;;;;;10.54;67.70;98840.13;4010968;29;20053;-61
2022/04/07 04:11:07;;;;;;;2.00;1.00;;;;;;;10.55;67.67;98821.94;4032808;29;20049;-61
2022/04/07 04:13:10;;;;;;;3.13;1.05;;;;;;;10.51;67.95;98825.44;4029342;29;20411;-61
2022/04/07 04:15:13;;;;;;;1.08;0.98;;;;;;;10.48;68.04;98834.16;4019259;29;20041;-61
2022/04/07 04:17:16;;;;;;;3.20;1.30;;;;;;;10.54;67.63;98845.34;4021462;29;20050;-61
2022/04/07 04:19:19;;;;;;;2.78;1.13;;;;;;;10.51;68.28;98817.63;4031912;29;20071;-61
2022/04/07 04:21:22;;;;;;;3.22;1.20;;;;;;;10.58;68.02;98818.44;4031743;29;20057;-61
2022/04/07 04:23:25;;;;;;;5.57;1.30;;;;;;;10.63;67.20;98819.22;4031310;29;20047;-62
2022/04/07 04:25:27;;;;;;;5.43;1.45;;;;;;;10.60;68.27;98814.06;4027870;29;20127;-61
2022/04/07 04:27:32;;;;;;;2.65;1.30;;;;;;;10.64;67.70;98814.03;4030798;29;20499;-61
2022/04/07 04:29:35;;;;;;;2.03;1.23;;;;;;;10.61;67.89;98816.66;4042015;29;20563;-61
2022/04/07 04:31:38;;;;;;;5.15;1.15;;;;;;;10.51;68.08;98814.19;4037201;29;20048;-63
2022/04/07 04:33:41;;;;;;;2.75;1.35;;;;;;;10.57;67.98;98809.78;4032020;29;20053;-61
2022/04/07 04:35:44;;;;;;;2.08;0.90;;;;;;;10.56;68.49;98813.25;4028173;29;20041;-61
2022/04/07 04:37:47;;;;;;;5.60;0.70;;;;;;;10.53;68.27;98802.91;4035467;29;20047;-62
2022/04/07 04:39:49;;;;;;;1.65;0.88;;;;;;;10.59;68.03;98797.63;4033571;29;20052;-61
2022/04/07 04:41:52;;;;;;;1.35;0.65;;;;;;;10.54;68.62;98791.66;4028165;29;20513;-61
2022/04/07 04:43:56;;;;;;;2.72;0.80;;;;;;;10.48;69.31;98802.97;4026198;29;20040;-61
2022/04/07 04:45:59;;;;;;;2.05;0.75;;;;;;;10.50;69.33;98794.28;4034640;29;20055;-62
2022/04/07 04:48:02;;;;;;;0.98;0.77;;;;;;;10.51;69.31;98796.00;4040132;29;20128;-62
2022/04/07 04:50:06;;;;;;;0.70;0.70;;;;;;;10.52;69.21;98784.75;4013650;29;20056;-62
2022/04/07 04:52:11;;;;;;;2.35;0.90;;;;;;;10.63;69.98;98788.91;4036265;29;20053;-61
2022/04/07 04:54:14;;;;;;;5.97;1.00;;;;;;;10.51;70.08;98783.00;4027442;29;20522;-62
2022/04/07 04:56:16;;;;;;;3.95;0.90;;;;;;;10.40;69.48;98790.94;4035712;29;20119;-62
2022/04/07 04:58:19;;;;;;;0.60;0.60;;;;;;;10.44;70.23;98777.91;4036979;29;20037;-62
2022/04/07 05:00:24;;;;;;;1.15;0.75;;;;;;;10.61;69.72;98776.81;4045612;29;20040;-62
2022/04/07 05:02:26;;;;;;;1.17;0.70;;;;;;;10.54;69.88;98773.47;4039101;29;20033;-62
2022/04/07 05:04:29;;;;;;;1.27;0.75;;;;;;;10.48;69.65;98770.91;4030440;29;20049;-61
2022/04/07 05:06:32;;;;;;;1.02;0.77;;;;;;;10.47;69.52;98767.47;4035753;29;20131;-62
2022/04/07 05:08:35;;;;;;;3.47;0.60;;;;;;;10.44;69.69;98761.44;4039008;29;20588;-61
2022/04/07 05:10:40;;;;;;;0.93;0.85;;;;;;;10.46;69.30;98757.09;4038232;29;20503;-61
2022/04/07 05:12:43;;;;;;;1.75;0.85;;;;;;;10.57;69.70;98762.13;4047400;29;20051;-61
2022/04/07 05:14:46;;;;;;;0.90;0.68;;;;;;;10.67;69.69;98755.09;4050242;29;20522;-61
2022/04/07 05:16:50;;;;;;;2.63;0.60;;;;;;;10.51;69.40;98746.63;4045008;29;20056;-62
2022/04/07 05:18:53;;;;;;;0.93;0.70;;;;;;;10.58;69.51;98745.69;4066363;29;20107;-62
2022/04/07 05:20:56;;;;;;;0.88;0.70;;;;;;;10.52;69.29;98759.59;4041345;29;20060;-62
2022/04/07 05:23:03;;;;;;;1.77;0.85;;;;;;;10.71;68.46;98742.03;4052180;29;20052;-61
2022/04/07 05:25:06;;;;;;;0.93;0.60;;;;;;;10.61;69.10;98749.09;4042603;29;20407;-62
2022/04/07 05:27:09;;;;;;;1.90;0.80;;;;;;;10.51;69.76;98747.50;4038408;29;20487;-62
2022/04/07 05:29:12;;;;;;;1.73;0.70;;;;;;;10.56;69.65;98750.91;4036923;29;20403;-62
2022/04/07 05:31:15;;;;;;;1.48;0.60;;;;;;;10.56;69.43;98744.84;4046468;29;20041;-62
2022/04/07 05:33:19;;;;;;;0.68;0.60;;;;;;;10.70;69.40;98729.91;4054300;29;20055;-62
2022/04/07 05:35:26;;;;;;;0.75;0.70;;;;;;;10.62;68.75;98722.22;4048691;29;20131;-62
2022/04/07 05:37:29;;;;;;;1.15;0.80;;;;;;;10.67;68.93;98734.31;4043550;29;20079;-62
2022/04/07 05:39:32;;;;;;;0.75;0.70;;;;;;;10.74;68.44;98736.78;4053068;29;20052;-62
2022/04/07 05:41:34;;;;;;;1.75;1.13;;;;;;;10.77;68.65;98733.28;4045183;29;20037;-62
2022/04/07 05:43:37;;;;;;;1.30;0.82;;;;;;;10.76;68.35;98722.03;4048119;29;20120;-61
2022/04/07 05:45:42;;;;;;;2.28;0.80;;;;;;;10.70;68.60;98722.09;4036595;29;20064;-62
2022/04/07 05:47:45;;;;;;;;;;;;;;;10.63;68.67;98728.28;4049490;29;20066;-62
2022/04/07 05:49:49;;;;;;;1.35;0.68;;;;;;;10.76;68.04;98727.25;4044231;29;19923;-62
2022/04/07 05:51:54;;;;;;;0.98;0.65;;;;;;;10.78;67.57;98720.25;4044869;29;20112;-62
2022/04/07 05:53:57;;;;;;;1.30;0.60;;;;;;;10.84;67.86;98719.31;4046985;29;20452;-62
2022/04/07 05:56:00;;;;;;;1.40;0.60;;;;;;;10.80;67.64;98708.09;4044701;29;20045;-62
2022/04/07 05:58:04;;;;;;;2.55;0.80;;;;;;;10.82;66.87;98708.94;4043223;29;20037;-62
2022/04/07 06:00:10;;;;;;;2.28;0.80;;;;;;;10.87;66.19;98697.63;4037477;29;20060;-61
2022/04/07 06:02:12;;;;;;;1.73;0.65;;;;;;;10.76;67.05;98703.84;4037798;29;20048;-61
2022/04/07 06:04:15;;;;;;;1.20;0.80;;;;;;;10.79;66.88;98706.41;4046816;29;20095;-62
2022/04/07 06:06:21;;;;;;;4.57;0.90;;;;;;;10.86;66.89;98701.09;4046214;29;20376;-63
2022/04/07 06:08:24;;;;;;;1.40;0.60;;;;;;;10.80;67.39;98696.84;4039067;29;20040;-62
2022/04/07 06:10:28;;;;;;;1.70;0.88;;;;;;;10.78;67.27;98691.66;4033364;29;20057;-62
2022/04/07 06:12:31;;;;;;;0.50;0.50;;;;;;;10.91;67.64;98686.31;4033988;29;20586;-62
2022/04/07 06:14:33;;;;;;;1.27;1.00;;;;;;;10.95;66.34;98670.63;4036993;29;20032;-62
2022/04/07 06:16:36;;;;;;;2.70;0.88;;;;;;;10.87;67.00;98671.63;4032954;29;20044;-61
2022/04/07 06:18:39;;;;;;;1.30;0.75;;;;;;;10.89;66.99;98670.69;4034883;29;20044;-62
2022/04/07 06:20:42;;;;;;;1.58;0.73;;;;;;;10.92;67.55;98662.88;4033536;29;20124;-61
2022/04/07 06:22:46;;;;;;;1.58;0.75;;;;;;;10.98;66.78;98649.78;4041714;29;20123;-62
2022/04/07 06:24:49;;;;;;;0.80;0.70;;;;;;;10.79;67.01;98657.00;4034863;29;20052;-61
2022/04/07 06:26:52;;;;;;;1.00;0.70;;;;;;;10.73;68.49;98653.63;4036508;29;20057;-62
2022/04/07 06:28:55;;;;;;;1.08;0.55;;;;;;;10.70;68.40;98633.75;4031269;29;20128;-62
2022/04/07 06:30:58;;;;;;;0.90;0.70;;;;;;;10.68;69.00;98653.72;4034474;29;20071;-62
2022/04/07 06:33:01;;;;;;;2.15;0.90;;;;;;;10.80;67.77;98645.72;4020111;29;20503;-62
2022/04/07 06:35:05;;;;;;;1.83;0.70;;;;;;;10.88;67.36;98626.53;4022120;29;20413;-62
2022/04/07 06:37:08;;;;;;;2.05;0.73;;;;;;;10.74;68.39;98617.22;4024260;29;20140;-62
2022/04/07 06:39:12;;;;;;;0.90;0.60;;;;;;;10.78;67.78;98626.69;4033458;29;20040;-61
2022/04/07 06:41:15;;;;;;;1.63;0.77;;;;;;;10.77;67.86;98616.31;4034797;29;20044;-62
2022/04/07 06:43:19;;;;;;;0.80;0.60;;;;;;;10.66;68.24;98621.69;4034645;29;20129;-61
2022/04/07 06:45:22;;;;;;;3.65;0.65;;;;;;;10.70;68.23;98605.16;4023267;29;20136;-62
2022/04/07 06:47:28;;;;;;;1.25;0.50;;;;;;;10.76;68.59;98619.78;4024088;29;20059;-61
2022/04/07 06:49:31;;;;;;;2.00;0.75;;;;;;;10.67;68.67;98605.22;4024103;29;20072;-61
2022/04/07 06:51:36;;;;;;;2.10;0.80;;;;;;;10.61;68.58;98603.56;4038041;29;20060;-62
2022/04/07 06:53:39;;;;;;;0.60;0.60;;;;;;;10.62;69.91;98599.25;4024223;29;20059;-61
2022/04/07 06:55:44;;;;;;;0.93;0.70;;;;;;;10.43;70.39;98609.06;4024349;29;20061;-62
2022/04/07 06:57:51;;;;;;;0.60;0.60;;;;;;;10.52;69.84;98587.28;4022691;29;20228;-62
2022/04/07 06:59:53;;;;;;;2.35;0.90;;;;;;;10.59;69.74;98588.91;4024287;29;20045;-62
2022/04/07 07:01:56;;;;;;;0.63;0.60;;;;;;;10.67;69.80;98570.56;4024247;29;20037;-62
2022/04/07 07:03:59;;;;;;;4.25;0.85;;;;;;;10.73;70.40;98573.94;4024274;29;20097;-61
2022/04/07 07:06:02;;;;;;;0.57;0.57;;;;;;;10.65;69.84;98587.03;4024156;29;20085;-61
2022/04/07 07:08:15;;;;;;;1.73;0.75;;;;;;;10.51;70.44;98580.34;4022418;29;20045;-62
2022/04/07 07:10:20;;;;;;;1.27;0.80;;;;;;;10.53;70.32;98576.00;4034131;29;20456;-62
2022/04/07 07:12:24;;;;;;;1.92;0.93;;;;;;;10.59;71.39;98568.13;4024157;29;20041;-62
2022/04/07 07:14:27;;;;;;;1.35;0.90;;;;;;;10.50;71.90;98576.03;4024222;29;20514;-62
2022/04/07 07:16:30;;;;;;;0.73;0.68;;;;;;;10.52;70.92;98569.94;4023793;29;20517;-62
2022/04/07 07:18:33;;;;;;;1.95;1.00;;;;;;;10.67;70.88;98563.63;4023694;29;20395;-62
2022/04/07 07:20:36;;;;;;;1.20;0.73;;;;;;;10.78;70.54;98560.88;4024058;29;20048;-62
2022/04/07 07:22:40;;;;;;;1.13;0.80;;;;;;;10.85;69.88;98546.00;4038095;29;20455;-62
2022/04/07 07:24:43;;;;;;;2.90;0.75;;;;;;;10.80;69.54;98552.13;4024006;29;20076;-61
2022/04/07 07:26:46;;;;;;;4.75;1.17;;;;;;;10.64;70.58;98545.50;4022610;29;20037;-62
2022/04/07 07:28:50;;;;;;;0.65;0.60;;;;;;;10.55;71.94;98550.84;4038987;29;20128;-62
2022/04/07 07:30:53;;;;;;;1.75;0.82;;;;;;;10.41;71.20;98543.28;4025393;29;20045;-62
2022/04/07 07:32:56;;;;;;;3.58;1.45;;;;;;;10.40;72.11;98539.81;4024268;29;20503;-61
2022/04/07 07:34:59;;;;;;;2.03;0.80;;;;;;;10.59;71.79;98527.38;4038028;29;20041;-62
2022/04/07 07:37:02;;;;;;;1.30;1.00;;;;;;;10.73;71.46;98515.88;4023279;29;20045;-61
2022/04/07 07:39:07;;;;;;;1.58;0.95;;;;;;;10.61;71.42;98525.59;4037284;29;20547;-62
2022/04/07 07:41:10;;;;;;;1.00;0.85;;;;;;;10.56;72.12;98517.06;4034347;29;20037;-61
2022/04/07 07:43:13;;;;;;;1.42;0.70;;;;;;;10.52;71.96;98519.72;4034611;29;20036;-62
2022/04/07 07:45:18;;;;;;;2.80;1.00;;;;;;;10.57;72.35;98491.91;4027365;29;20136;-61
2022/04/07 07:47:41;;;;;;;1.60;0.93;;;;;;;10.52;72.99;98498.94;4023254;29;20040;-62
2022/04/07 07:49:44;;;;;;;0.88;0.82;;;;;;;10.67;72.87;98493.47;4023669;29;20124;-62
2022/04/07 07:51:47;;;;;;;2.33;0.90;;;;;;;10.70;72.53;98496.00;4023545;29;20072;-61
2022/04/07 07:53:51;;;;;;;1.50;0.88;;;;;;;10.70;72.99;98493.41;4025065;29;20056;-62
2022/04/07 07:55:54;;;;;;;1.42;0.80;;;;;;;10.64;72.91;98496.13;4030498;29;20049;-62
2022/04/07 07:57:58;;;;;;;2.00;1.00;;;;;;;10.55;73.09;98506.69;4023603;29;20052;-63
2022/04/07 08:00:03;;;;;;;1.35;0.90;;;;;;;10.57;73.08;98504.91;4024261;29;20038;-62
2022/04/07 08:02:07;;;;;;;0.98;0.88;;;;;;;10.57;73.23;98503.19;4029168;29;20061;-62
2022/04/07 08:04:16;;;;;;;1.50;0.80;;;;;;;10.67;73.53;98493.47;4030645;29;20040;-61
2022/04/07 08:06:19;;;;;;;1.42;1.10;;;;;;;10.77;72.76;98500.22;4039982;29;20049;-62
2022/04/07 08:08:22;;;;;;;2.85;0.90;;;;;;;10.83;73.09;98499.25;4042705;29;20029;-62
2022/04/07 08:10:25;;;;;;;1.70;0.80;;;;;;;10.80;72.12;98487.16;4034583;29;20140;-63
2022/04/07 08:12:28;;;;;;;2.03;0.77;;;;;;;10.84;72.34;98474.97;4033387;29;20132;-63
2022/04/07 08:14:31;;;;;;;2.25;0.70;;;;;;;10.73;72.70;98482.97;4032332;29;20068;-63
2022/04/07 08:16:34;;;;;;;1.13;0.70;;;;;;;10.75;73.04;98465.59;4037684;29;20067;-63
2022/04/07 08:18:39;;;;;;;1.73;0.90;;;;;;;10.70;73.14;98454.41;4039221;29;20064;-63
2022/04/07 08:20:42;;;;;;;3.13;1.08;;;;;;;10.68;73.66;98461.41;4036956;29;20517;-63
2022/04/07 08:22:45;;;;;;;1.10;0.95;;;;;;;10.77;73.18;98453.41;4038488;29;20152;-63
2022/04/07 08:24:48;;;;;;;1.70;0.90;;;;;;;10.75;73.16;98454.38;4034596;29;20052;-63
2022/04/07 08:26:50;;;;;;;2.45;2.25;;;;;;;10.72;72.95;98462.19;4035534;29;20123;-63
2022/04/07 08:28:53;;;;;;;1.20;0.75;;;;;;;10.73;73.55;98451.78;4031986;29;20052;-63
2022/04/07 08:30:56;;;;;;;3.67;0.90;;;;;;;10.98;72.12;98456.50;4024503;29;20140;-64
2022/04/07 08:32:59;;;;;;;1.95;0.68;;;;;;;10.98;72.92;98448.69;4025973;29;20046;-63
2022/04/07 08:35:05;;;;;;;1.60;1.00;;;;;;;10.82;73.06;98456.81;4023258;29;20045;-63
2022/04/07 08:37:08;;;;;;;2.17;1.00;;;;;;;10.65;73.62;98456.28;4026248;29;20580;-63
2022/04/07 08:39:11;;;;;;;5.10;1.20;;;;;;;10.77;73.92;98447.38;4014337;29;20041;-63
2022/04/07 08:41:14;;;;;;;0.77;0.70;;;;;;;10.84;73.38;98443.78;4024764;29;20046;-63
2022/04/07 08:43:17;;;;;;;1.38;0.80;;;;;;;10.89;73.35;98435.88;4022798;29;20076;-63
2022/04/07 08:45:21;;;;;;;1.48;1.10;;;;;;;10.96;73.11;98416.69;4039761;29;20072;-63
2022/04/07 08:47:25;;;;;;;4.00;1.13;;;;;;;10.86;73.42;98420.34;4021944;29;20050;-63
2022/04/07 08:49:30;;;;;;;2.50;1.00;;;;;;;10.82;74.44;98432.56;4007657;29;20598;-65
2022/04/07 08:51:34;;;;;;;1.13;0.88;;;;;;;11.00;73.76;98410.53;4025089;29;20069;-62
2022/04/07 08:53:38;;;;;;;1.55;0.85;;;;;;;10.95;73.85;98430.56;4038566;29;20047;-63
2022/04/07 08:55:41;;;;;;;2.10;0.85;;;;;;;10.95;73.56;98418.44;4024723;29;20049;-63
2022/04/07 08:57:44;;;;;;;1.00;0.82;;;;;;;10.87;74.45;98420.31;4026190;29;20493;-63
2022/04/07 08:59:47;;;;;;;2.25;0.95;;;;;;;10.98;73.89;98407.09;4026886;29;20037;-63
2022/04/07 09:01:50;;;;;;;1.08;0.73;;;;;;;10.95;73.73;98409.75;4023716;29;20040;-63
2022/04/07 09:03:53;;;;;;;1.55;0.70;;;;;;;10.92;73.94;98402.91;4023824;29;20407;-63
2022/04/07 09:05:58;;;;;;;1.95;0.93;;;;;;;10.93;74.24;98411.53;4025211;29;20064;-63
2022/04/07 09:08:02;;;;;;;2.53;0.70;;;;;;;11.06;74.61;98407.81;4032351;29;20128;-63
2022/04/07 09:10:06;;;;;;;1.60;1.00;;;;;;;11.14;74.14;98398.09;4024420;29;20044;-63
2022/04/07 09:12:10;;;;;;;3.33;1.30;;;;;;;11.10;73.32;98406.00;4013423;29;20751;-63
2022/04/07 09:14:14;;;;;;;3.10;1.03;;;;;;;11.16;73.41;98393.72;4034707;29;20069;-63
2022/04/07 09:16:17;;;;;;;2.63;1.27;;;;;;;11.14;73.75;98387.69;4027940;29;20354;-63
2022/04/07 09:18:24;;;;;;;1.25;0.80;;;;;;;11.28;73.25;98386.53;4026358;29;20085;-63
2022/04/07 09:20:27;;;;;;;2.25;0.90;;;;;;;11.28;73.41;98381.34;4030308;29;20042;-63
2022/04/07 09:22:31;;;;;;;3.00;1.02;;;;;;;11.32;73.26;98377.78;4027687;29;20109;-64
2022/04/07 09:24:36;;;;;;;2.90;0.73;;;;;;;11.24;72.62;98387.50;4040239;29;20052;-63
2022/04/07 09:26:40;;;;;;;5.03;1.23;;;;;;;11.37;72.85;98373.31;4027726;29;20809;-63
2022/04/07 09:28:43;;;;;;;3.17;1.10;;;;;;;11.27;72.43;98364.88;4026024;29;20042;-63
2022/04/07 09:30:50;;;;;;;2.33;0.82;;;;;;;11.16;73.55;98346.91;4019248;29;20132;-63
2022/04/07 09:32:53;;;;;;;1.60;0.90;;;;;;;11.21;73.72;98348.53;4030107;29;20052;-63
2022/04/07 09:34:58;;;;;;;2.08;0.93;;;;;;;11.27;73.13;98348.41;4027648;29;20091;-63
2022/04/07 09:37:04;;;;;;;;;;;;;;;11.28;72.93;98334.53;4042696;29;20156;-63
2022/04/07 09:39:07;;;;;;;2.55;1.10;;;;;;;11.33;72.60;98348.25;4041791;29;20371;-63
2022/04/07 09:41:14;;;;;;;1.83;0.95;;;;;;;11.11;73.02;98346.16;4041604;29;20083;-63
2022/04/07 09:43:17;;;;;;;2.42;1.05;;;;;;;11.31;72.75;98342.25;4027520;29;20068;-63